createdAt,value
2019-05-18T05:51:04.536Z,99.13
2019-05-18T05:53:35.838Z,98.85
2019-05-18T05:56:06.929Z,91.76
2019-05-18T06:01:53.397Z,92.96
2019-05-18T06:04:24.429Z,88.19
2019-05-18T06:06:55.472Z,92.13
2019-05-18T06:09:26.468Z,85.53
2019-05-18T06:11:57.556Z,86.45
2019-05-18T06:14:28.576Z,85.46
2019-05-18T06:16:59.548Z,83.26
2019-05-18T06:19:30.498Z,82.64
2019-05-18T06:22:01.532Z,81.13
2019-05-18T06:24:32.558Z,77.37
2019-05-18T06:27:04.587Z,76.33
2019-05-18T06:29:35.678Z,76.68
2019-05-18T06:32:06.765Z,76.85
2019-05-18T06:34:37.785Z,75.13
2019-05-18T06:37:08.817Z,73.33
2019-05-18T06:39:40.855Z,75.85
2019-05-18T06:42:11.886Z,74.14
2019-05-18T06:44:42.828Z,71.89
2019-05-18T06:47:13.859Z,71.92
2019-05-18T06:49:44.886Z,67.97
2019-05-18T06:52:15.929Z,68.38
2019-05-18T06:54:46.959Z,67.35
2019-05-18T06:57:17.977Z,64.56
2019-05-18T06:59:49.517Z,64.08
2019-05-18T07:02:20.532Z,63.55
2019-05-18T07:04:51.555Z,62.43
2019-05-18T07:07:22.569Z,62.63
2019-05-18T07:09:53.533Z,62.10
2019-05-18T07:12:24.618Z,60.97
2019-05-18T07:14:55.662Z,62.42
2019-05-18T07:17:26.749Z,61.39
2019-05-18T07:19:57.768Z,61.18
2019-05-18T07:22:28.789Z,61.38
2019-05-18T07:24:59.879Z,60.68
2019-05-18T07:27:30.921Z,59.51
2019-05-18T07:30:01.954Z,61.81
2019-05-18T07:32:32.948Z,62.45
2019-05-18T07:35:04.167Z,63.59
2019-05-18T07:37:35.910Z,63.72
2019-05-18T07:40:08.303Z,63.17
2019-05-18T07:42:39.731Z,62.73
2019-05-18T07:45:11.074Z,63.52
2019-05-18T07:47:42.101Z,61.83
2019-05-18T07:50:13.443Z,61.62
2019-05-18T07:52:44.535Z,61.27
2019-05-18T07:55:15.674Z,60.08
2019-05-18T07:57:47.410Z,60.22
2019-05-18T08:00:18.604Z,58.42
2019-05-18T08:02:49.804Z,56.62
2019-05-18T08:05:21.610Z,54.43
2019-05-18T08:07:52.635Z,55.19
2019-05-18T08:10:26.575Z,53.25
2019-05-18T08:12:57.599Z,50.68
2019-05-18T08:15:28.664Z,49.16
2019-05-18T08:20:29.411Z,48.76
2019-05-18T08:23:00.441Z,48.00
2019-05-18T08:25:31.412Z,46.92
2019-05-18T08:28:02.506Z,46.92
2019-05-18T08:30:33.533Z,46.93
2019-05-18T08:33:04.777Z,46.37
2019-05-18T08:35:35.766Z,45.27
2019-05-18T08:38:06.811Z,43.41
2019-05-18T08:40:37.832Z,42.47
2019-05-18T08:43:08.849Z,43.21
2019-05-18T08:45:40.859Z,43.31
2019-05-18T08:48:11.909Z,44.37
2019-05-18T08:50:43.048Z,43.11
2019-05-18T08:53:13.995Z,41.89
2019-05-18T08:55:45.023Z,41.74
2019-05-18T08:58:16.123Z,40.95
2019-05-18T09:00:47.154Z,41.69
2019-05-18T09:03:18.215Z,41.48
2019-05-18T09:05:49.269Z,40.68
2019-05-18T09:08:20.289Z,40.75
2019-05-18T09:10:51.365Z,41.04
2019-05-18T09:13:22.375Z,39.21
2019-05-18T09:15:53.329Z,40.06
2019-05-18T09:18:24.358Z,40.38
2019-05-18T09:20:55.482Z,39.57
2019-05-18T09:23:26.508Z,40.38
2019-05-18T09:25:57.605Z,39.23
2019-05-18T09:28:28.642Z,38.93
2019-05-18T09:30:59.686Z,37.90
2019-05-18T09:33:30.731Z,37.18
2019-05-18T09:36:01.849Z,36.04
2019-05-18T09:38:33.526Z,36.40
2019-05-18T09:41:04.745Z,36.38
2019-05-18T09:43:35.886Z,35.71
2019-05-18T09:46:06.994Z,35.94
2019-05-18T09:48:38.017Z,38.73
2019-05-18T09:51:09.046Z,38.82
2019-05-18T09:53:50.705Z,38.12
2019-05-18T09:56:12.898Z,39.28
2019-05-18T09:58:43.907Z,36.99
2019-05-18T10:01:14.973Z,36.25
2019-05-18T10:03:45.972Z,35.69
2019-05-18T10:06:17.072Z,35.24
2019-05-18T10:08:48.148Z,35.34
2019-05-18T10:11:19.170Z,34.94
2019-05-18T10:13:50.181Z,35.04
2019-05-18T10:16:21.322Z,35.26
2019-05-18T10:18:52.395Z,35.52
2019-05-18T10:21:23.496Z,36.18
2019-05-18T10:23:54.723Z,36.69
2019-05-18T10:26:25.752Z,37.12
2019-05-18T10:28:56.777Z,36.63
2019-05-18T10:31:27.781Z,35.74
2019-05-18T10:33:58.852Z,35.55
2019-05-18T10:36:29.936Z,34.62
2019-05-18T10:39:00.989Z,35.30
2019-05-18T10:41:33.343Z,35.29
2019-05-18T10:44:04.453Z,35.42
2019-05-18T10:46:35.555Z,34.37
2019-05-18T10:49:06.645Z,35.99
2019-05-18T10:51:37.743Z,37.26
2019-05-18T10:54:08.768Z,36.59
2019-05-18T10:56:39.792Z,36.70
2019-05-18T10:59:12.011Z,36.85
2019-05-18T11:01:43.995Z,37.46
2019-05-18T11:04:15.332Z,36.99
2019-05-18T11:06:46.353Z,36.71
2019-05-18T11:09:17.385Z,35.48
2019-05-18T11:11:48.541Z,36.42
2019-05-18T11:14:19.685Z,36.30
2019-05-18T11:16:50.702Z,35.21
2019-05-18T11:19:22.500Z,34.22
2019-05-18T11:21:53.644Z,34.57
2019-05-18T11:24:24.687Z,33.92
2019-05-18T11:26:55.831Z,35.54
2019-05-18T11:29:26.930Z,36.14
2019-05-18T11:31:57.928Z,35.03
2019-05-18T11:34:28.936Z,34.25
2019-05-18T11:37:03.106Z,32.66
2019-05-18T11:39:32.771Z,32.96
2019-05-18T11:42:03.817Z,31.98
2019-05-18T11:44:34.836Z,31.52
2019-05-18T11:47:05.793Z,31.70
2019-05-18T11:49:36.818Z,32.15
2019-05-18T11:52:07.897Z,31.29
2019-05-18T11:54:38.924Z,32.30
2019-05-18T11:57:09.940Z,31.65
2019-05-18T11:59:40.982Z,30.73
2019-05-18T12:02:12.057Z,30.29
2019-05-18T12:04:43.084Z,28.35
2019-05-18T12:07:14.110Z,28.65
2019-05-18T12:09:45.056Z,27.13
2019-05-18T12:12:16.178Z,26.07
2019-05-18T12:14:47.210Z,26.29
2019-05-18T12:17:18.086Z,25.02
2019-05-18T12:19:49.126Z,24.40
2019-05-18T12:22:20.079Z,25.20
2019-05-18T12:24:51.160Z,24.26
2019-05-18T12:27:22.176Z,25.80
2019-05-18T12:29:53.186Z,25.80
2019-05-18T12:32:24.132Z,26.16
2019-05-18T12:34:55.210Z,26.29
2019-05-18T12:37:26.229Z,26.71
2019-05-18T12:39:57.228Z,28.68
2019-05-18T12:42:28.259Z,27.42
2019-05-18T12:44:59.273Z,27.03
2019-05-18T12:47:30.291Z,27.76
2019-05-18T12:50:02.384Z,26.84
2019-05-18T12:52:33.456Z,26.27
2019-05-18T12:55:06.676Z,26.05
2019-05-18T12:57:37.683Z,25.82
2019-05-18T13:00:13.876Z,25.39
2019-05-18T13:02:45.878Z,24.49
2019-05-18T13:05:17.094Z,24.56
2019-05-18T13:07:48.179Z,24.92
2019-05-18T13:10:19.796Z,24.09
2019-05-18T13:12:50.794Z,24.09
2019-05-18T13:15:22.418Z,23.88
2019-05-18T13:17:53.430Z,23.75
2019-05-18T13:20:24.436Z,23.62
2019-05-18T13:22:55.443Z,23.98
2019-05-18T13:25:26.373Z,23.72
2019-05-18T13:27:57.376Z,21.96
2019-05-18T13:30:28.454Z,21.89
2019-05-18T13:32:59.466Z,21.48
2019-05-18T13:35:30.477Z,22.06
2019-05-18T13:38:01.494Z,20.79
2019-05-18T13:40:32.505Z,22.28
2019-05-18T13:43:03.548Z,21.91
2019-05-18T13:45:34.547Z,21.86
2019-05-18T13:48:05.476Z,21.76
2019-05-18T13:50:36.537Z,20.77
2019-05-18T13:53:07.562Z,21.70
2019-05-18T13:55:38.563Z,21.80
2019-05-18T13:58:09.688Z,21.46
2019-05-18T14:00:40.763Z,21.67
2019-05-18T14:03:11.844Z,22.07
2019-05-18T14:05:42.854Z,22.79
2019-05-18T14:08:15.659Z,23.32
2019-05-18T14:10:46.898Z,22.32
2019-05-18T14:13:18.082Z,22.89
2019-05-18T14:15:49.183Z,22.48
2019-05-18T14:18:20.186Z,21.92
2019-05-18T14:20:51.336Z,21.93
2019-05-18T14:23:22.399Z,24.08
2019-05-18T14:25:53.489Z,22.75
2019-05-18T14:28:24.558Z,22.47
2019-05-18T14:30:55.757Z,22.15
2019-05-18T14:33:26.768Z,22.38
2019-05-18T14:35:57.839Z,23.42
2019-05-18T14:38:28.927Z,24.39
2019-05-18T14:40:59.995Z,23.10
2019-05-18T14:43:31.003Z,23.11
2019-05-18T14:46:02.110Z,23.62
2019-05-18T14:48:33.186Z,24.20
2019-05-18T14:51:04.095Z,23.46
2019-05-18T14:53:35.111Z,22.40
2019-05-18T14:56:06.289Z,22.34
2019-05-18T14:58:37.311Z,20.87
2019-05-18T15:01:08.313Z,21.01
2019-05-18T15:03:39.331Z,20.39
2019-05-18T15:06:10.280Z,21.38
2019-05-18T15:08:41.191Z,22.52
2019-05-18T15:11:12.119Z,21.99
2019-05-18T15:13:43.318Z,23.09
2019-05-18T15:16:14.347Z,22.53
2019-05-18T15:18:45.356Z,24.37
2019-05-18T15:21:16.434Z,24.60
2019-05-18T15:23:47.375Z,22.76
2019-05-18T15:26:18.456Z,22.34
2019-05-18T15:28:49.457Z,22.31
2019-05-18T15:31:23.693Z,20.99
2019-05-18T15:33:53.203Z,20.70
2019-05-18T15:36:24.296Z,20.83
2019-05-18T15:38:55.380Z,20.73
2019-05-18T15:41:26.294Z,20.10
2019-05-18T15:43:57.308Z,19.02
2019-05-18T15:46:28.569Z,18.99
2019-05-18T15:48:59.645Z,18.41
2019-05-18T15:51:30.782Z,18.34
2019-05-18T15:54:01.799Z,18.65
2019-05-18T15:56:32.832Z,17.80
2019-05-18T15:59:03.848Z,17.99
2019-05-18T16:01:34.984Z,17.28
2019-05-18T16:04:06.713Z,17.31
2019-05-18T16:06:37.850Z,16.36
2019-05-18T16:09:09.030Z,16.50
2019-05-18T16:11:40.040Z,17.81
2019-05-18T16:14:11.109Z,17.01
2019-05-18T16:16:42.140Z,16.21
2019-05-18T16:19:13.144Z,16.05
2019-05-18T16:21:44.160Z,15.77
2019-05-18T16:24:15.191Z,16.13
2019-05-18T16:26:46.147Z,16.90
2019-05-18T16:29:17.165Z,16.10
2019-05-18T16:31:48.182Z,15.45
2019-05-18T16:34:19.267Z,15.01
2019-05-18T16:36:50.302Z,15.95
2019-05-18T16:39:21.386Z,15.80
2019-05-18T16:41:53.392Z,15.22
2019-05-18T16:44:24.503Z,14.54
2019-05-18T16:46:55.589Z,14.33
2019-05-18T16:49:26.694Z,14.36
2019-05-18T16:51:57.719Z,14.47
2019-05-18T16:54:28.758Z,14.10
2019-05-18T16:56:59.803Z,14.61
2019-05-18T16:59:30.889Z,14.92
2019-05-18T17:02:01.926Z,14.43
2019-05-18T17:04:33.033Z,14.57
2019-05-18T17:07:04.122Z,14.29
2019-05-18T17:09:35.221Z,14.98
2019-05-18T17:12:06.226Z,15.07
2019-05-18T17:14:37.305Z,15.08
2019-05-18T17:17:08.317Z,14.85
2019-05-18T17:19:39.316Z,14.52
2019-05-18T17:22:10.337Z,14.04
2019-05-18T17:24:41.357Z,14.69
2019-05-18T17:27:12.442Z,15.08
2019-05-18T17:29:43.554Z,15.03
2019-05-18T17:32:15.688Z,15.78
2019-05-18T17:34:46.772Z,16.19
2019-05-18T17:37:17.855Z,16.27
2019-05-18T17:39:48.973Z,16.64
2019-05-18T17:42:20.062Z,17.37
2019-05-18T17:44:51.137Z,17.51
2019-05-18T17:47:22.189Z,17.67
2019-05-18T17:49:53.191Z,19.01
2019-05-18T17:52:24.386Z,18.96
2019-05-18T17:54:57.354Z,19.60
2019-05-18T17:57:28.201Z,20.07
2019-05-18T17:59:59.286Z,21.01
2019-05-18T18:02:31.472Z,21.20
2019-05-18T18:05:02.558Z,21.56
2019-05-18T18:07:33.558Z,22.02
2019-05-18T18:10:05.792Z,22.80
2019-05-18T18:12:36.899Z,25.28
2019-05-18T18:15:08.988Z,27.71
2019-05-18T18:17:40.383Z,29.98
2019-05-18T18:20:11.573Z,31.67
2019-05-18T18:22:42.652Z,33.02
2019-05-18T18:25:13.875Z,35.02
2019-05-18T18:27:44.902Z,36.20
2019-05-18T18:30:16.719Z,36.20
2019-05-18T18:32:47.743Z,37.77
2019-05-18T18:35:18.773Z,39.18
2019-05-18T18:37:49.871Z,43.51
2019-05-18T18:40:20.963Z,44.24
2019-05-18T18:42:52.088Z,45.57
2019-05-18T18:45:23.123Z,46.33
2019-05-18T18:47:54.135Z,47.21
2019-05-18T18:50:25.469Z,48.06
2019-05-18T18:52:56.581Z,49.21
2019-05-18T18:55:27.703Z,50.59
2019-05-18T18:57:58.748Z,51.99
2019-05-18T19:00:29.663Z,52.85
2019-05-18T19:03:00.779Z,53.18
2019-05-18T19:05:31.813Z,53.99
2019-05-18T19:08:02.797Z,55.40
2019-05-18T19:10:33.802Z,53.65
2019-05-18T19:13:04.863Z,56.14
2019-05-18T19:15:35.895Z,55.38
2019-05-18T19:18:06.963Z,58.45
2019-05-18T19:20:38.071Z,59.73
2019-05-18T19:23:09.025Z,61.37
2019-05-18T19:25:40.061Z,63.34
2019-05-18T19:28:11.151Z,63.74
2019-05-18T19:30:42.185Z,63.76
2019-05-18T19:33:13.220Z,62.98
2019-05-18T19:35:44.235Z,64.26
2019-05-18T19:38:15.261Z,66.38
2019-05-18T19:40:46.562Z,68.56
2019-05-18T19:43:17.691Z,69.13
2019-05-18T19:45:48.714Z,69.89
2019-05-18T19:48:19.742Z,69.22
2019-05-18T19:50:50.839Z,69.49
2019-05-18T19:53:21.899Z,69.64
2019-05-18T19:55:52.926Z,70.42
2019-05-18T19:58:23.976Z,71.16
2019-05-18T20:00:55.082Z,72.24
2019-05-18T20:03:26.100Z,71.59
2019-05-18T20:05:57.200Z,71.78
2019-05-18T20:08:28.312Z,71.80
2019-05-18T20:10:59.360Z,71.12
2019-05-18T20:13:30.381Z,72.81
2019-05-18T20:16:01.449Z,73.15
2019-05-18T20:18:33.623Z,75.20
2019-05-18T20:21:04.637Z,74.63
2019-05-18T20:23:35.807Z,76.95
2019-05-18T20:26:06.841Z,77.91
2019-05-18T20:28:37.925Z,79.02
2019-05-18T20:31:09.055Z,79.74
2019-05-18T20:33:40.146Z,79.28
2019-05-18T20:36:11.251Z,81.05
2019-05-18T20:38:42.286Z,79.49
2019-05-18T20:41:13.389Z,80.80
2019-05-18T20:43:44.579Z,80.01
2019-05-18T20:46:15.664Z,80.90
2019-05-18T20:48:46.978Z,81.75
2019-05-18T20:51:18.078Z,82.51
2019-05-18T20:53:49.031Z,83.37
2019-05-18T20:56:20.053Z,83.41
2019-05-18T20:58:51.140Z,84.39
2019-05-18T21:01:22.241Z,85.38
2019-05-18T21:03:53.264Z,84.04
2019-05-18T21:06:24.301Z,83.93
2019-05-18T21:08:55.327Z,84.91
2019-05-18T21:11:26.339Z,85.69
2019-05-18T21:13:57.877Z,84.11
2019-05-18T21:16:28.974Z,84.32
2019-05-18T21:18:59.996Z,84.54
2019-05-18T21:21:31.026Z,84.64
2019-05-18T21:24:02.064Z,85.07
2019-05-18T21:26:33.074Z,85.81
2019-05-18T21:29:04.099Z,84.97
2019-05-18T21:31:35.155Z,84.15
2019-05-18T21:34:06.240Z,83.45
2019-05-18T21:36:37.448Z,83.24
2019-05-18T21:39:08.498Z,83.08
2019-05-18T21:41:39.597Z,83.20
2019-05-18T21:44:10.640Z,84.08
2019-05-18T21:46:41.722Z,84.70
2019-05-18T21:49:12.767Z,85.45
2019-05-18T21:51:43.792Z,86.14
2019-05-18T21:54:14.818Z,86.62
2019-05-18T21:56:45.835Z,86.39
2019-05-18T21:59:16.867Z,86.74
2019-05-18T22:01:49.112Z,85.65
2019-05-18T22:04:20.140Z,87.11
2019-05-18T22:06:51.161Z,86.40
2019-05-18T22:09:22.279Z,86.86
2019-05-18T22:11:53.324Z,87.01
2019-05-18T22:14:24.351Z,86.12
2019-05-18T22:16:55.445Z,86.20
2019-05-18T22:19:26.470Z,86.21
2019-05-18T22:21:57.498Z,85.69
2019-05-18T22:24:28.571Z,86.45
2019-05-18T22:27:00.595Z,87.28
2019-05-18T22:29:31.609Z,87.32
2019-05-18T22:32:02.709Z,87.59
2019-05-18T22:34:33.814Z,87.12
2019-05-18T22:37:04.758Z,87.01
2019-05-18T22:39:37.467Z,87.27
2019-05-18T22:42:08.488Z,87.18
2019-05-18T22:44:39.496Z,87.29
2019-05-18T22:47:10.589Z,86.85
2019-05-18T22:49:41.609Z,87.94
2019-05-18T22:52:12.643Z,88.01
2019-05-18T22:54:43.743Z,87.11
2019-05-18T22:57:14.695Z,87.08
2019-05-18T22:59:45.703Z,88.58
2019-05-18T23:02:16.734Z,88.49
2019-05-18T23:04:49.054Z,88.62
2019-05-18T23:07:20.103Z,88.65
2019-05-18T23:09:51.031Z,88.11
2019-05-18T23:12:22.153Z,87.55
2019-05-18T23:14:53.239Z,88.60
2019-05-18T23:17:24.361Z,89.10
2019-05-18T23:19:55.360Z,89.50
2019-05-18T23:22:26.576Z,90.11
2019-05-18T23:24:58.485Z,91.34
2019-05-18T23:27:29.507Z,92.01
2019-05-18T23:30:00.536Z,91.87
2019-05-18T23:32:32.834Z,91.84
2019-05-18T23:35:04.251Z,92.20
2019-05-18T23:37:35.273Z,92.19
2019-05-18T23:40:07.106Z,91.70
2019-05-18T23:42:38.126Z,92.66
2019-05-18T23:45:09.247Z,93.36
2019-05-18T23:47:40.290Z,92.29
2019-05-18T23:50:11.501Z,92.51
2019-05-18T23:52:42.588Z,92.13
2019-05-18T23:55:14.203Z,92.15
2019-05-18T23:57:45.242Z,93.22
